createdAt,value
2023-01-08T00:00:05.082Z,7.60
2023-01-08T00:00:17.166Z,7.66
2023-01-08T00:00:29.244Z,7.69
2023-01-08T00:00:41.229Z,7.73
2023-01-08T00:00:53.331Z,7.75
2023-01-08T00:01:07.426Z,7.77
2023-01-08T00:01:19.476Z,7.81
2023-01-08T00:01:31.426Z,7.83
2023-01-08T00:01:43.402Z,7.85
2023-01-08T00:01:55.316Z,7.89
2023-01-08T00:02:07.484Z,7.91
2023-01-08T00:02:19.423Z,7.92
2023-01-08T00:02:31.414Z,7.87
2023-01-08T00:02:43.592Z,7.88
2023-01-08T00:02:55.670Z,7.90
2023-01-08T00:03:07.748Z,7.93
2023-01-08T00:03:19.919Z,7.93
2023-01-08T00:03:32.089Z,7.95
2023-01-08T00:03:44.726Z,7.95
2023-01-08T00:03:56.751Z,7.98
2023-01-08T00:04:08.836Z,7.97
2023-01-08T00:04:20.886Z,7.98
2023-01-08T00:04:32.772Z,8.01
2023-01-08T00:04:45.019Z,7.99
2023-01-08T00:04:56.971Z,7.87
2023-01-08T00:05:11.457Z,7.82
2023-01-08T00:05:23.459Z,7.75
2023-01-08T00:05:35.391Z,7.67
2023-01-08T00:05:50.247Z,7.70
2023-01-08T00:06:04.458Z,7.75
2023-01-08T00:06:18.976Z,7.73
2023-01-08T00:06:31.170Z,7.59
2023-01-08T00:06:43.143Z,7.58
2023-01-08T00:06:55.085Z,7.56
2023-01-08T00:07:06.981Z,7.55
2023-01-08T00:07:19.189Z,7.53
2023-01-08T00:07:31.096Z,7.54
2023-01-08T00:07:43.023Z,7.50
2023-01-08T00:07:54.981Z,7.46
2023-01-08T00:08:08.507Z,7.46
2023-01-08T00:08:20.488Z,7.47
2023-01-08T00:08:33.023Z,7.38
2023-01-08T00:08:45.501Z,7.29
2023-01-08T00:08:57.494Z,7.31
2023-01-08T00:09:10.884Z,7.34
2023-01-08T00:09:22.773Z,7.38
2023-01-08T00:09:34.773Z,7.40
2023-01-08T00:09:50.600Z,7.23
2023-01-08T00:10:02.583Z,7.31
2023-01-08T00:10:14.784Z,7.30
2023-01-08T00:10:26.740Z,7.32
2023-01-08T00:10:38.814Z,7.33
2023-01-08T00:10:55.323Z,7.31
2023-01-08T00:11:07.663Z,7.30
2023-01-08T00:11:19.629Z,7.25
2023-01-08T00:11:31.621Z,7.19
2023-01-08T00:11:44.455Z,7.13
2023-01-08T00:11:56.408Z,7.10
2023-01-08T00:12:08.373Z,7.08
2023-01-08T00:12:20.268Z,7.03
2023-01-08T00:12:32.194Z,7.05
2023-01-08T00:12:44.146Z,7.08
2023-01-08T00:12:56.420Z,7.07
2023-01-08T00:13:10.875Z,7.11
2023-01-08T00:13:23.078Z,7.13
2023-01-08T00:13:35.261Z,7.17
2023-01-08T00:13:47.189Z,7.22
2023-01-08T00:13:59.077Z,7.25
2023-01-08T00:14:11.617Z,7.27
2023-01-08T00:14:23.664Z,7.29
2023-01-08T00:14:35.646Z,7.31
2023-01-08T00:14:47.624Z,7.27
2023-01-08T00:14:59.531Z,7.33
2023-01-08T00:15:11.494Z,7.35
2023-01-08T00:15:23.653Z,7.39
2023-01-08T00:15:35.812Z,7.42
2023-01-08T00:15:47.842Z,7.46
2023-01-08T00:16:07.005Z,7.46
2023-01-08T00:16:20.360Z,7.50
2023-01-08T00:16:32.622Z,7.51
2023-01-08T00:16:44.891Z,7.54
2023-01-08T00:16:56.877Z,7.54
2023-01-08T00:17:08.914Z,7.55
2023-01-08T00:17:20.891Z,7.58
2023-01-08T00:17:32.890Z,7.59
2023-01-08T00:17:44.775Z,7.58
2023-01-08T00:17:57.792Z,7.59
2023-01-08T00:18:09.714Z,7.62
2023-01-08T00:18:22.137Z,7.56
2023-01-08T00:18:34.684Z,7.55
2023-01-08T00:18:47.591Z,7.58
2023-01-08T00:18:59.493Z,7.62
2023-01-08T00:19:14.314Z,7.49
2023-01-08T00:19:26.321Z,7.38
2023-01-08T00:19:38.228Z,7.12
2023-01-08T00:19:50.163Z,7.06
2023-01-08T00:20:02.133Z,7.09
2023-01-08T00:20:14.625Z,7.08
2023-01-08T00:20:26.923Z,7.10
2023-01-08T00:20:42.875Z,7.09
2023-01-08T00:20:54.823Z,7.18
2023-01-08T00:21:07.177Z,7.15
2023-01-08T00:21:19.376Z,7.14
2023-01-08T00:21:31.271Z,7.18
2023-01-08T00:21:43.250Z,7.19
2023-01-08T00:21:55.156Z,7.24
2023-01-08T00:22:07.069Z,7.29
2023-01-08T00:22:19.001Z,7.31
2023-01-08T00:22:31.180Z,7.32
2023-01-08T00:22:43.365Z,7.33
2023-01-08T00:22:55.347Z,7.25
2023-01-08T00:23:12.079Z,7.23
2023-01-08T00:23:24.324Z,7.20
2023-01-08T00:23:39.798Z,7.23
2023-01-08T00:23:51.687Z,7.26
2023-01-08T00:24:03.924Z,7.30
2023-01-08T00:24:16.030Z,7.33
2023-01-08T00:24:28.043Z,7.36
2023-01-08T00:24:40.786Z,7.41
2023-01-08T00:24:52.760Z,7.44
2023-01-08T00:25:05.270Z,7.47
2023-01-08T00:25:18.532Z,7.48
2023-01-08T00:25:30.472Z,7.45
2023-01-08T00:25:42.814Z,7.45
2023-01-08T00:25:54.945Z,7.44
2023-01-08T00:26:09.300Z,7.48
2023-01-08T00:26:21.391Z,7.53
2023-01-08T00:26:33.311Z,7.52
2023-01-08T00:26:45.223Z,7.51
2023-01-08T00:26:57.196Z,7.52
2023-01-08T00:27:09.188Z,7.55
2023-01-08T00:27:21.179Z,7.56
2023-01-08T00:27:33.140Z,7.58
2023-01-08T00:27:45.220Z,7.60
2023-01-08T00:27:57.140Z,7.60
2023-01-08T00:28:09.449Z,7.62
2023-01-08T00:28:24.044Z,7.60
2023-01-08T00:28:37.057Z,7.64
2023-01-08T00:28:48.994Z,7.64
2023-01-08T00:29:00.963Z,7.64
2023-01-08T00:29:12.918Z,7.63
2023-01-08T00:29:24.910Z,7.61
2023-01-08T00:29:37.418Z,7.63
2023-01-08T00:29:49.331Z,7.63
2023-01-08T00:30:01.225Z,7.64
2023-01-08T00:30:13.418Z,7.65
2023-01-08T00:30:25.292Z,7.62
2023-01-08T00:30:37.613Z,7.59
2023-01-08T00:30:49.592Z,7.53
2023-01-08T00:31:06.320Z,7.56
2023-01-08T00:31:18.492Z,7.58
2023-01-08T00:31:30.488Z,7.56
2023-01-08T00:31:42.432Z,7.54
2023-01-08T00:31:54.429Z,7.51
2023-01-08T00:32:06.392Z,7.46
2023-01-08T00:32:18.367Z,7.40
2023-01-08T00:32:30.277Z,7.40
2023-01-08T00:32:42.180Z,7.39
2023-01-08T00:32:54.079Z,7.37
2023-01-08T00:33:06.067Z,7.40
2023-01-08T00:33:18.043Z,7.43
2023-01-08T00:33:30.127Z,7.44
2023-01-08T00:33:42.208Z,7.40
2023-01-08T00:33:54.209Z,7.33
2023-01-08T00:34:06.155Z,7.39
2023-01-08T00:34:18.115Z,7.41
2023-01-08T00:34:30.063Z,7.41
2023-01-08T00:34:42.032Z,7.36
2023-01-08T00:34:54.651Z,7.32
2023-01-08T00:35:06.926Z,7.30
2023-01-08T00:35:18.829Z,7.29
2023-01-08T00:35:30.791Z,7.27
2023-01-08T00:35:42.753Z,7.27
2023-01-08T00:35:54.765Z,7.31
2023-01-08T00:36:11.699Z,7.29
2023-01-08T00:36:23.637Z,7.25
2023-01-08T00:36:35.585Z,7.19
2023-01-08T00:36:47.576Z,6.87
2023-01-08T00:36:59.508Z,6.84
2023-01-08T00:37:11.527Z,6.65
2023-01-08T00:37:23.435Z,6.53
2023-01-08T00:37:35.381Z,6.47
2023-01-08T00:37:49.465Z,6.59
2023-01-08T00:38:01.395Z,6.61
2023-01-08T00:38:13.358Z,6.64
2023-01-08T00:38:29.338Z,6.68
2023-01-08T00:38:42.039Z,6.60
2023-01-08T00:38:54.017Z,6.61
2023-01-08T00:39:05.927Z,6.71
2023-01-08T00:39:17.839Z,6.75
2023-01-08T00:39:29.938Z,6.76
2023-01-08T00:39:41.897Z,6.77
2023-01-08T00:39:54.207Z,6.79
2023-01-08T00:40:07.007Z,6.81
2023-01-08T00:40:18.936Z,6.79
2023-01-08T00:40:31.063Z,6.78
2023-01-08T00:40:42.968Z,6.80
2023-01-08T00:40:55.534Z,6.68
2023-01-08T00:41:08.017Z,6.54
2023-01-08T00:41:20.023Z,6.63
2023-01-08T00:41:31.934Z,6.58
2023-01-08T00:41:46.616Z,6.46
2023-01-08T00:41:58.552Z,6.43
2023-01-08T00:42:11.039Z,6.51
2023-01-08T00:42:23.146Z,6.56
2023-01-08T00:42:35.119Z,6.57
2023-01-08T00:42:47.750Z,6.62
2023-01-08T00:42:59.821Z,6.65
2023-01-08T00:43:11.720Z,6.63
2023-01-08T00:43:23.742Z,6.63
2023-01-08T00:43:35.805Z,6.65
2023-01-08T00:43:47.725Z,6.60
2023-01-08T00:43:59.624Z,6.56
2023-01-08T00:44:11.572Z,6.43
2023-01-08T00:44:23.548Z,6.29
2023-01-08T00:44:35.506Z,6.18
2023-01-08T00:44:47.461Z,6.14
2023-01-08T00:44:59.388Z,6.17
2023-01-08T00:45:11.391Z,6.23
2023-01-08T00:45:23.275Z,6.26
2023-01-08T00:45:35.633Z,6.31
2023-01-08T00:45:47.692Z,6.34
2023-01-08T00:45:59.719Z,6.36
2023-01-08T00:46:11.808Z,6.38
2023-01-08T00:46:23.881Z,6.31
2023-01-08T00:46:35.878Z,6.36
2023-01-08T00:46:47.873Z,6.38
2023-01-08T00:46:59.831Z,6.39
2023-01-08T00:47:11.946Z,6.46
2023-01-08T00:47:23.992Z,6.47
2023-01-08T00:47:36.075Z,6.47
2023-01-08T00:47:48.018Z,6.49
2023-01-08T00:48:00.037Z,6.50
2023-01-08T00:48:12.011Z,6.54
2023-01-08T00:48:24.877Z,6.57
2023-01-08T00:48:38.717Z,6.64
2023-01-08T00:48:50.846Z,6.67
2023-01-08T00:49:02.884Z,6.65
2023-01-08T00:49:14.855Z,6.60
2023-01-08T00:49:26.803Z,6.52
2023-01-08T00:49:38.827Z,6.54
2023-01-08T00:49:50.780Z,6.57
2023-01-08T00:50:03.178Z,6.59
2023-01-08T00:50:15.144Z,6.58
2023-01-08T00:50:27.120Z,6.52
2023-01-08T00:50:39.051Z,6.53
2023-01-08T00:50:52.563Z,6.46
2023-01-08T00:51:06.441Z,6.51
2023-01-08T00:51:18.323Z,6.49
2023-01-08T00:51:30.244Z,6.51
2023-01-08T00:51:42.171Z,6.58
2023-01-08T00:51:54.084Z,6.62
2023-01-08T00:52:07.727Z,6.66
2023-01-08T00:52:19.737Z,6.70
2023-01-08T00:52:31.641Z,6.74
2023-01-08T00:52:43.603Z,6.78
2023-01-08T00:52:58.537Z,6.84
2023-01-08T00:53:10.464Z,6.83
2023-01-08T00:53:23.370Z,6.84
2023-01-08T00:53:35.753Z,6.85
2023-01-08T00:53:47.749Z,6.86
2023-01-08T00:53:59.886Z,6.88
2023-01-08T00:54:12.161Z,6.89
2023-01-08T00:54:24.162Z,6.90
2023-01-08T00:54:36.083Z,6.88
2023-01-08T00:54:48.060Z,6.84
2023-01-08T00:55:00.003Z,6.82
2023-01-08T00:55:12.007Z,6.77
2023-01-08T00:55:23.977Z,6.72
2023-01-08T00:55:35.926Z,6.74
2023-01-08T00:55:48.192Z,6.71
2023-01-08T00:56:04.978Z,6.69
2023-01-08T00:56:16.878Z,6.67
2023-01-08T00:56:28.864Z,6.63
2023-01-08T00:56:40.749Z,6.66
2023-01-08T00:56:55.024Z,6.66
2023-01-08T00:57:06.916Z,6.62
2023-01-08T00:57:18.892Z,6.62
2023-01-08T00:57:34.913Z,6.63
2023-01-08T00:57:46.887Z,6.60
2023-01-08T00:57:59.028Z,6.62
2023-01-08T00:58:12.255Z,6.55
2023-01-08T00:58:24.204Z,6.44
2023-01-08T00:58:40.228Z,6.43
2023-01-08T00:58:52.143Z,6.48
2023-01-08T00:59:04.087Z,6.49
2023-01-08T00:59:16.070Z,6.50
2023-01-08T00:59:27.977Z,6.51
2023-01-08T00:59:39.967Z,6.49
2023-01-08T00:59:51.913Z,6.50
2023-01-08T01:00:06.818Z,6.53
2023-01-08T01:00:18.737Z,6.55
2023-01-08T01:00:30.738Z,6.55
2023-01-08T01:00:42.742Z,6.59
2023-01-08T01:00:54.785Z,6.64
2023-01-08T01:01:14.858Z,6.70
2023-01-08T01:01:27.117Z,6.76
2023-01-08T01:01:39.708Z,6.82
2023-01-08T01:01:54.392Z,6.87
2023-01-08T01:02:09.231Z,6.93
2023-01-08T01:02:21.213Z,6.92
2023-01-08T01:02:35.403Z,6.95
2023-01-08T01:02:47.612Z,6.99
2023-01-08T01:02:59.595Z,7.02
2023-01-08T01:03:11.536Z,7.02
2023-01-08T01:03:23.826Z,7.03
2023-01-08T01:03:35.751Z,6.96
2023-01-08T01:03:49.982Z,6.92
2023-01-08T01:04:02.042Z,6.66
2023-01-08T01:04:15.149Z,6.71
2023-01-08T01:04:27.173Z,6.76
2023-01-08T01:04:39.277Z,6.77
2023-01-08T01:04:51.240Z,6.66
2023-01-08T01:05:04.508Z,6.64
2023-01-08T01:05:17.382Z,6.57
2023-01-08T01:05:29.496Z,6.61
2023-01-08T01:05:44.483Z,6.60
2023-01-08T01:06:04.337Z,6.61
2023-01-08T01:06:16.392Z,6.65
2023-01-08T01:06:28.536Z,6.70
2023-01-08T01:06:42.859Z,6.69
2023-01-08T01:06:54.838Z,6.73
2023-01-08T01:07:06.815Z,6.75
2023-01-08T01:07:18.864Z,6.73
2023-01-08T01:07:31.054Z,6.75
2023-01-08T01:07:44.425Z,6.71
2023-01-08T01:07:56.981Z,6.75
2023-01-08T01:08:08.978Z,6.76
2023-01-08T01:08:20.953Z,6.74
2023-01-08T01:08:33.895Z,6.76
2023-01-08T01:08:45.825Z,6.76
2023-01-08T01:08:57.797Z,6.74
2023-01-08T01:09:09.945Z,6.72
2023-01-08T01:09:21.910Z,6.72
2023-01-08T01:09:33.803Z,6.75
2023-01-08T01:09:45.692Z,6.76
2023-01-08T01:09:57.713Z,6.76
2023-01-08T01:10:11.619Z,6.77
2023-01-08T01:10:24.262Z,6.82
2023-01-08T01:10:38.773Z,6.79
2023-01-08T01:10:50.693Z,6.79
2023-01-08T01:11:19.740Z,6.78
2023-01-08T01:11:31.677Z,6.76
2023-01-08T01:11:43.644Z,6.73
2023-01-08T01:11:55.690Z,6.73
2023-01-08T01:12:08.178Z,6.73
2023-01-08T01:12:22.982Z,6.70
2023-01-08T01:12:37.422Z,6.70
2023-01-08T01:12:49.908Z,6.68
2023-01-08T01:13:01.867Z,6.63
2023-01-08T01:13:13.771Z,6.59
2023-01-08T01:13:25.803Z,6.59
2023-01-08T01:13:37.806Z,6.60
2023-01-08T01:13:50.516Z,6.61
2023-01-08T01:14:02.576Z,6.60
2023-01-08T01:14:14.604Z,6.58
2023-01-08T01:14:26.686Z,6.59
2023-01-08T01:14:38.802Z,6.50
2023-01-08T01:14:50.720Z,6.43
2023-01-08T01:15:02.754Z,6.39
2023-01-08T01:15:16.541Z,6.39
2023-01-08T01:15:28.505Z,6.37
2023-01-08T01:15:40.501Z,6.29
2023-01-08T01:15:59.359Z,6.36
2023-01-08T01:16:11.307Z,6.43
2023-01-08T01:16:24.149Z,6.44
2023-01-08T01:16:36.445Z,6.52
2023-01-08T01:16:48.636Z,6.53
2023-01-08T01:17:00.714Z,6.54
2023-01-08T01:17:12.926Z,6.57
2023-01-08T01:17:25.093Z,6.64
2023-01-08T01:17:41.988Z,6.72
2023-01-08T01:17:53.928Z,6.68
2023-01-08T01:18:05.934Z,6.70
2023-01-08T01:18:18.003Z,6.71
2023-01-08T01:18:31.173Z,6.73
2023-01-08T01:18:43.479Z,6.73
2023-01-08T01:18:56.621Z,6.71
2023-01-08T01:19:08.722Z,6.66
2023-01-08T01:19:20.638Z,6.57
2023-01-08T01:19:32.571Z,6.50
2023-01-08T01:19:44.596Z,6.40
2023-01-08T01:19:56.495Z,6.34
2023-01-08T01:20:11.787Z,6.40
2023-01-08T01:20:23.973Z,6.48
2023-01-08T01:20:35.873Z,6.51
2023-01-08T01:20:47.801Z,6.52
2023-01-08T01:20:59.749Z,6.53
2023-01-08T01:21:27.882Z,6.57
2023-01-08T01:21:39.822Z,6.60
2023-01-08T01:21:51.790Z,6.59
2023-01-08T01:22:04.104Z,6.51
2023-01-08T01:22:16.065Z,6.45
2023-01-08T01:22:28.033Z,6.51
2023-01-08T01:22:40.068Z,6.52
2023-01-08T01:22:52.061Z,6.49
2023-01-08T01:23:04.428Z,6.53
2023-01-08T01:23:16.317Z,6.54
2023-01-08T01:23:28.214Z,6.56
2023-01-08T01:23:40.400Z,6.56
2023-01-08T01:24:04.509Z,6.68
2023-01-08T01:24:16.470Z,6.79
2023-01-08T01:24:28.545Z,6.78
2023-01-08T01:24:40.473Z,6.86
2023-01-08T01:24:52.410Z,6.92
2023-01-08T01:25:05.348Z,6.96
2023-01-08T01:25:17.735Z,6.95
2023-01-08T01:25:29.656Z,6.99
2023-01-08T01:25:42.011Z,6.91
2023-01-08T01:25:54.980Z,6.77
2023-01-08T01:26:13.881Z,6.76
2023-01-08T01:26:26.825Z,6.74
2023-01-08T01:26:39.309Z,6.79
2023-01-08T01:26:52.173Z,6.86
2023-01-08T01:27:04.217Z,6.92
2023-01-08T01:27:16.184Z,6.94
2023-01-08T01:27:28.152Z,7.01
2023-01-08T01:27:40.046Z,7.03
2023-01-08T01:27:51.985Z,7.00
2023-01-08T01:28:04.049Z,7.03
2023-01-08T01:28:16.305Z,7.00
2023-01-08T01:28:28.256Z,7.02
2023-01-08T01:28:40.274Z,6.98
2023-01-08T01:28:54.335Z,7.01
2023-01-08T01:29:06.541Z,6.95
2023-01-08T01:29:18.533Z,6.95
2023-01-08T01:29:30.545Z,6.93
2023-01-08T01:29:42.520Z,6.98
2023-01-08T01:29:54.540Z,6.80
2023-01-08T01:30:07.221Z,6.64
2023-01-08T01:30:19.187Z,6.61
2023-01-08T01:30:31.236Z,6.61
2023-01-08T01:30:43.296Z,6.57
2023-01-08T01:30:56.871Z,6.58
2023-01-08T01:31:12.709Z,6.58
2023-01-08T01:31:27.675Z,6.62
2023-01-08T01:31:39.790Z,6.55
2023-01-08T01:31:51.717Z,6.54
2023-01-08T01:32:03.822Z,6.52
2023-01-08T01:32:15.940Z,6.52
2023-01-08T01:32:27.937Z,6.59
2023-01-08T01:32:39.912Z,6.55
2023-01-08T01:32:51.839Z,6.54
2023-01-08T01:33:03.852Z,6.60
2023-01-08T01:33:15.775Z,6.65
2023-01-08T01:33:27.747Z,6.67
2023-01-08T01:33:40.728Z,6.74
2023-01-08T01:33:52.642Z,6.79
2023-01-08T01:34:04.564Z,6.85
2023-01-08T01:34:16.674Z,6.91
2023-01-08T01:34:28.569Z,6.97
2023-01-08T01:34:40.543Z,6.93
2023-01-08T01:34:52.453Z,6.94
2023-01-08T01:35:04.739Z,6.96
2023-01-08T01:35:16.716Z,6.94
2023-01-08T01:35:28.996Z,6.96
2023-01-08T01:35:40.964Z,6.96
2023-01-08T01:36:00.922Z,6.94
2023-01-08T01:36:14.566Z,6.91
2023-01-08T01:36:27.011Z,6.89
2023-01-08T01:36:38.925Z,6.87
2023-01-08T01:36:50.885Z,6.88
2023-01-08T01:37:03.717Z,6.87
2023-01-08T01:37:16.269Z,6.90
2023-01-08T01:37:28.276Z,6.91
2023-01-08T01:37:40.200Z,6.94
2023-01-08T01:37:52.126Z,6.98
2023-01-08T01:38:04.067Z,7.02
2023-01-08T01:38:15.967Z,7.06
2023-01-08T01:38:28.385Z,7.10
2023-01-08T01:38:44.688Z,7.09
2023-01-08T01:38:58.028Z,7.06
2023-01-08T01:39:10.381Z,7.06
2023-01-08T01:39:23.135Z,7.03
2023-01-08T01:39:35.022Z,7.00
2023-01-08T01:39:47.006Z,6.97
2023-01-08T01:39:58.996Z,6.95
2023-01-08T01:40:11.174Z,6.93
2023-01-08T01:40:23.140Z,6.95
2023-01-08T01:40:35.085Z,6.94
2023-01-08T01:40:47.014Z,6.96
2023-01-08T01:40:59.601Z,6.96
2023-01-08T01:41:30.735Z,7.00
2023-01-08T01:41:44.787Z,7.02
2023-01-08T01:41:56.743Z,7.02
2023-01-08T01:42:35.709Z,6.99
2023-01-08T01:42:47.629Z,6.98
2023-01-08T01:42:59.539Z,6.98
2023-01-08T01:43:14.719Z,6.93
2023-01-08T01:43:53.206Z,6.97
2023-01-08T01:44:43.367Z,6.99
2023-01-08T01:44:55.297Z,7.00
2023-01-08T01:45:24.053Z,6.96
2023-01-08T01:45:36.973Z,6.93
2023-01-08T01:45:48.941Z,6.89
2023-01-08T01:46:01.153Z,6.88
2023-01-08T01:46:39.601Z,6.94
2023-01-08T01:46:51.619Z,7.02
2023-01-08T01:47:12.451Z,7.07
2023-01-08T01:47:35.672Z,7.15
2023-01-08T01:48:11.910Z,7.32
2023-01-08T01:48:24.057Z,7.38
2023-01-08T01:48:35.957Z,7.38
2023-01-08T01:48:51.991Z,7.41
2023-01-08T01:49:20.516Z,7.50
2023-01-08T01:49:33.901Z,7.47
2023-01-08T01:49:52.897Z,7.42
2023-01-08T01:50:29.447Z,7.49
2023-01-08T01:50:48.140Z,7.52
2023-01-08T01:51:00.115Z,7.58
2023-01-08T01:51:12.341Z,7.62
2023-01-08T01:51:29.320Z,7.64
2023-01-08T01:51:52.137Z,7.66
2023-01-08T01:52:07.949Z,7.68
2023-01-08T01:52:22.276Z,7.67
2023-01-08T01:52:57.106Z,7.69
2023-01-08T01:53:15.012Z,7.74
2023-01-08T01:53:32.715Z,7.76
2023-01-08T01:53:45.299Z,7.75
2023-01-08T01:53:58.060Z,7.77
2023-01-08T01:54:12.673Z,7.77
2023-01-08T01:54:25.010Z,7.76
2023-01-08T01:54:37.425Z,7.72
2023-01-08T01:54:51.607Z,7.55
2023-01-08T01:55:05.405Z,7.52
2023-01-08T01:55:18.177Z,7.47
2023-01-08T01:55:31.697Z,7.40
2023-01-08T01:55:44.892Z,7.43
2023-01-08T01:55:58.371Z,7.46
2023-01-08T01:56:10.279Z,7.49
2023-01-08T01:56:22.328Z,7.52
2023-01-08T01:56:34.630Z,7.53
2023-01-08T01:56:47.472Z,7.57
2023-01-08T01:57:00.862Z,7.56
2023-01-08T01:57:12.916Z,7.55
2023-01-08T01:57:25.083Z,7.53
2023-01-08T01:57:38.323Z,7.51
2023-01-08T01:57:59.084Z,7.50
2023-01-08T01:58:16.941Z,7.47
2023-01-08T01:58:30.838Z,7.48
2023-01-08T01:58:42.756Z,7.40
2023-01-08T01:58:55.297Z,7.43
2023-01-08T01:59:07.263Z,7.37
2023-01-08T01:59:19.240Z,7.31
2023-01-08T01:59:31.144Z,7.20
2023-01-08T01:59:44.993Z,7.12
2023-01-08T01:59:58.911Z,7.11
2023-01-08T02:00:11.340Z,7.02
2023-01-08T02:00:23.981Z,6.90
2023-01-08T02:00:36.640Z,6.92
2023-01-08T02:00:49.814Z,6.91
2023-01-08T02:01:06.789Z,6.89
2023-01-08T02:01:19.725Z,6.85
2023-01-08T02:01:32.409Z,6.71
2023-01-08T02:01:46.043Z,6.72
2023-01-08T02:01:58.307Z,6.76
2023-01-08T02:02:10.700Z,6.75
2023-01-08T02:02:23.240Z,6.79
2023-01-08T02:02:35.421Z,6.82
2023-01-08T02:02:47.395Z,6.91
2023-01-08T02:02:59.780Z,6.95
2023-01-08T02:03:13.463Z,6.91
2023-01-08T02:03:29.911Z,6.98
2023-01-08T02:03:41.900Z,6.95
2023-01-08T02:03:56.390Z,6.97
2023-01-08T02:04:14.694Z,7.08
2023-01-08T02:04:26.674Z,7.12
2023-01-08T02:04:38.695Z,7.17
2023-01-08T02:04:51.285Z,7.18
2023-01-08T02:05:03.945Z,7.18
2023-01-08T02:05:16.111Z,7.23
2023-01-08T02:05:38.590Z,7.27
2023-01-08T02:05:59.607Z,7.31
2023-01-08T02:06:16.256Z,7.38
2023-01-08T02:06:38.058Z,7.44
2023-01-08T02:07:00.402Z,7.48
2023-01-08T02:07:12.256Z,7.51
2023-01-08T02:08:00.800Z,7.59
2023-01-08T02:08:15.717Z,7.62
2023-01-08T02:08:36.692Z,7.53
2023-01-08T02:08:57.327Z,7.39
2023-01-08T02:09:23.610Z,7.48
2023-01-08T02:09:42.061Z,7.28
2023-01-08T02:09:53.982Z,7.07
2023-01-08T02:10:33.828Z,6.89
2023-01-08T02:10:53.407Z,6.84
2023-01-08T02:11:05.388Z,6.84
2023-01-08T02:11:26.355Z,6.96
2023-01-08T02:12:16.529Z,6.92
2023-01-08T02:12:35.959Z,7.00
2023-01-08T02:12:59.963Z,7.04
2023-01-08T02:13:20.774Z,7.09
2023-01-08T02:13:37.245Z,7.23
2023-01-08T02:13:58.002Z,7.25
2023-01-08T02:14:35.576Z,7.37
2023-01-08T02:14:52.129Z,7.45
2023-01-08T02:15:13.792Z,7.52
2023-01-08T02:15:51.527Z,7.49
2023-01-08T02:16:16.337Z,7.59
2023-01-08T02:16:42.361Z,7.65
2023-01-08T02:17:02.777Z,7.69
2023-01-08T02:17:26.619Z,7.70
2023-01-08T02:17:46.634Z,7.73
2023-01-08T02:18:07.870Z,7.76
2023-01-08T02:18:27.771Z,7.74
2023-01-08T02:19:00.781Z,7.76
2023-01-08T02:19:22.813Z,7.77
2023-01-08T02:19:52.990Z,7.74
2023-01-08T02:20:11.941Z,7.81
2023-01-08T02:20:28.851Z,7.86
2023-01-08T02:20:46.383Z,7.79
2023-01-08T02:21:10.298Z,7.87
2023-01-08T02:21:48.164Z,7.89
2023-01-08T02:22:09.324Z,7.79
2023-01-08T02:22:51.493Z,7.59
2023-01-08T02:23:11.450Z,7.30
2023-01-08T02:23:33.866Z,7.24
2023-01-08T02:23:56.485Z,7.33
2023-01-08T02:24:40.249Z,7.36
2023-01-08T02:25:16.118Z,7.43
2023-01-08T02:25:43.683Z,7.33
2023-01-08T02:26:06.792Z,7.20
2023-01-08T02:26:29.895Z,7.15
2023-01-08T02:26:44.507Z,7.19
2023-01-08T02:26:59.424Z,7.25
2023-01-08T02:27:13.184Z,7.25
2023-01-08T02:27:28.125Z,7.29
2023-01-08T02:27:45.405Z,7.30
2023-01-08T02:28:01.714Z,7.24
2023-01-08T02:28:15.416Z,7.28
2023-01-08T02:28:30.434Z,7.35
2023-01-08T02:28:45.491Z,7.41
2023-01-08T02:29:09.905Z,7.44
2023-01-08T02:29:25.456Z,7.47
2023-01-08T02:29:37.430Z,7.52
2023-01-08T02:29:52.718Z,7.57
2023-01-08T02:30:05.582Z,7.59
2023-01-08T02:30:17.896Z,7.60
2023-01-08T02:30:30.440Z,7.66
2023-01-08T02:30:43.120Z,7.64
2023-01-08T02:30:55.523Z,7.63
2023-01-08T02:31:08.202Z,7.65
2023-01-08T02:31:22.746Z,7.65
2023-01-08T02:31:38.295Z,7.65
2023-01-08T02:31:50.396Z,7.68
2023-01-08T02:32:02.579Z,7.70
2023-01-08T02:32:14.766Z,7.70
2023-01-08T02:32:28.353Z,7.73
2023-01-08T02:32:42.626Z,7.71
2023-01-08T02:32:54.555Z,7.70
2023-01-08T02:33:06.578Z,7.76
2023-01-08T02:33:18.630Z,7.76
2023-01-08T02:33:32.635Z,7.76
2023-01-08T02:33:45.177Z,7.78
2023-01-08T02:33:57.229Z,7.81
2023-01-08T02:34:10.392Z,7.84
2023-01-08T02:34:22.374Z,7.86
2023-01-08T02:34:34.311Z,7.81
2023-01-08T02:34:46.195Z,7.85
2023-01-08T02:34:58.195Z,7.86
2023-01-08T02:35:11.639Z,7.89
2023-01-08T02:35:23.701Z,7.95
2023-01-08T02:35:46.096Z,7.95
2023-01-08T02:36:13.090Z,7.97
2023-01-08T02:36:33.687Z,7.99
2023-01-08T02:36:48.312Z,8.00
2023-01-08T02:37:01.133Z,7.97
2023-01-08T02:37:13.422Z,7.95
2023-01-08T02:37:25.793Z,7.96
2023-01-08T02:37:38.374Z,7.96
2023-01-08T02:37:50.352Z,7.96
2023-01-08T02:38:02.407Z,7.98
2023-01-08T02:38:17.625Z,8.00
2023-01-08T02:38:30.849Z,8.00
2023-01-08T02:39:09.391Z,8.03
2023-01-08T02:39:41.243Z,8.06
2023-01-08T02:40:09.624Z,8.11
2023-01-08T02:40:33.518Z,8.16
2023-01-08T02:40:57.707Z,8.17
2023-01-08T02:41:12.771Z,8.19
2023-01-08T02:41:36.525Z,8.20
2023-01-08T02:42:03.596Z,8.18
2023-01-08T02:42:36.915Z,8.03
2023-01-08T02:43:20.827Z,7.96
2023-01-08T02:43:46.691Z,7.97
2023-01-08T02:44:00.373Z,8.03
2023-01-08T02:44:18.289Z,8.07
2023-01-08T02:44:48.601Z,8.08
2023-01-08T02:45:14.280Z,8.12
2023-01-08T02:45:28.595Z,8.14
2023-01-08T02:45:48.317Z,8.16
2023-01-08T02:46:01.838Z,8.19
2023-01-08T02:46:26.810Z,8.20
2023-01-08T02:46:41.793Z,8.23
2023-01-08T02:46:56.971Z,8.24
2023-01-08T02:47:21.514Z,8.25
2023-01-08T02:47:50.591Z,8.28
2023-01-08T02:48:12.033Z,8.25
2023-01-08T02:48:42.625Z,8.24
2023-01-08T02:49:05.526Z,8.23
2023-01-08T02:49:21.381Z,8.24
2023-01-08T02:49:38.395Z,8.25
2023-01-08T02:49:56.800Z,8.24
2023-01-08T02:50:19.326Z,8.17
2023-01-08T02:50:31.185Z,8.19
2023-01-08T02:50:55.497Z,8.19
2023-01-08T02:51:15.837Z,8.19
2023-01-08T02:51:45.496Z,8.19
2023-01-08T02:51:58.691Z,8.23
2023-01-08T02:52:13.971Z,8.23
2023-01-08T02:52:29.455Z,8.23
2023-01-08T02:52:55.671Z,8.24
2023-01-08T02:53:18.848Z,8.26
2023-01-08T02:53:36.429Z,8.27
2023-01-08T02:53:54.198Z,8.28
2023-01-08T02:54:11.333Z,8.22
2023-01-08T02:54:31.211Z,8.15
2023-01-08T02:54:47.062Z,8.18
2023-01-08T02:55:02.576Z,8.19
2023-01-08T02:55:16.459Z,8.21
2023-01-08T02:55:30.399Z,8.24
2023-01-08T02:55:46.838Z,8.24
2023-01-08T02:56:04.081Z,8.25
2023-01-08T02:56:24.246Z,8.27
2023-01-08T02:56:43.732Z,8.29
2023-01-08T02:57:06.887Z,8.29
2023-01-08T02:57:19.898Z,8.29
2023-01-08T02:57:33.709Z,8.28
2023-01-08T02:57:46.464Z,8.28
2023-01-08T02:58:01.999Z,8.25
2023-01-08T02:58:14.468Z,8.24
2023-01-08T02:58:29.884Z,8.24
2023-01-08T02:58:44.327Z,8.26
2023-01-08T02:58:58.606Z,8.28
2023-01-08T02:59:13.067Z,8.28
2023-01-08T02:59:27.315Z,8.28
2023-01-08T02:59:42.825Z,8.31
2023-01-08T02:59:56.008Z,8.33
2023-01-08T03:00:09.028Z,8.33
2023-01-08T03:00:21.620Z,8.36
2023-01-08T03:00:34.374Z,8.36
2023-01-08T03:00:47.285Z,8.36
2023-01-08T03:01:03.275Z,8.39
2023-01-08T03:01:20.494Z,8.39
2023-01-08T03:01:35.028Z,8.39
2023-01-08T03:01:47.819Z,8.38
2023-01-08T03:02:02.508Z,8.37
2023-01-08T03:02:14.920Z,8.38
2023-01-08T03:02:32.682Z,8.39
2023-01-08T03:02:44.977Z,8.39
2023-01-08T03:03:10.288Z,8.40
2023-01-08T03:03:30.591Z,8.43
2023-01-08T03:03:46.586Z,8.48
2023-01-08T03:04:06.589Z,8.48
2023-01-08T03:04:22.167Z,8.48
2023-01-08T03:04:44.765Z,8.48
2023-01-08T03:05:03.444Z,8.48
2023-01-08T03:05:23.710Z,8.41
2023-01-08T03:05:37.978Z,8.39
2023-01-08T03:05:52.491Z,8.43
2023-01-08T03:06:08.845Z,8.44
2023-01-08T03:06:21.569Z,8.46
2023-01-08T03:06:33.769Z,8.47
2023-01-08T03:06:46.493Z,8.48
2023-01-08T03:06:58.467Z,8.49
2023-01-08T03:07:10.741Z,8.50
2023-01-08T03:07:22.664Z,8.50
2023-01-08T03:07:35.223Z,8.51
2023-01-08T03:07:47.275Z,8.50
2023-01-08T03:07:59.446Z,8.53
2023-01-08T03:08:12.447Z,8.52
2023-01-08T03:08:25.503Z,8.53
2023-01-08T03:08:40.738Z,8.53
2023-01-08T03:08:53.839Z,8.51
2023-01-08T03:09:09.116Z,8.51
2023-01-08T03:09:21.261Z,8.52
2023-01-08T03:09:33.369Z,8.52
2023-01-08T03:09:45.930Z,8.51
2023-01-08T03:09:58.656Z,8.52
2023-01-08T03:10:11.220Z,8.50
2023-01-08T03:10:26.171Z,8.49
2023-01-08T03:10:41.131Z,8.44
2023-01-08T03:11:00.674Z,8.39
2023-01-08T03:11:15.796Z,8.33
2023-01-08T03:11:34.580Z,8.29
2023-01-08T03:12:02.392Z,8.28
2023-01-08T03:12:21.227Z,8.28
2023-01-08T03:12:45.002Z,8.26
2023-01-08T03:13:09.628Z,8.16
2023-01-08T03:13:37.678Z,8.12
2023-01-08T03:14:27.458Z,8.18
2023-01-08T03:14:49.497Z,8.27
2023-01-08T03:15:08.051Z,8.28
2023-01-08T03:15:29.837Z,8.26
2023-01-08T03:15:47.454Z,8.27
2023-01-08T03:16:03.511Z,8.23
2023-01-08T03:16:21.374Z,8.27
2023-01-08T03:16:36.923Z,8.26
2023-01-08T03:16:57.118Z,8.27